sensor_id;sensor_type;location;lat;lon;timestamp;P1;durP1;ratioP1;P2;durP2;ratioP2
3667;SDS011;24099;47.102;15.440;2022-12-24T00:00:57;0.50;;;0.50;;
3667;SDS011;24099;47.102;15.440;2022-12-24T00:03:25;3.83;;;0.82;;
3667;SDS011;24099;47.102;15.440;2022-12-24T00:05:53;0.95;;;0.70;;
3667;SDS011;24099;47.102;15.440;2022-12-24T00:08:21;0.50;;;0.50;;
3667;SDS011;24099;47.102;15.440;2022-12-24T00:10:49;1.00;;;1.00;;
3667;SDS011;24099;47.102;15.440;2022-12-24T00:13:20;0.95;;;0.63;;
3667;SDS011;24099;47.102;15.440;2022-12-24T00:15:47;3.88;;;1.55;;
3667;SDS011;24099;47.102;15.440;2022-12-24T00:18:15;0.43;;;0.43;;
3667;SDS011;24099;47.102;15.440;2022-12-24T00:20:44;0.95;;;0.65;;
3667;SDS011;24099;47.102;15.440;2022-12-24T00:23:13;2.90;;;1.10;;
3667;SDS011;24099;47.102;15.440;2022-12-24T00:25:41;0.40;;;0.40;;
3667;SDS011;24099;47.102;15.440;2022-12-24T00:28:09;1.92;;;1.15;;
3667;SDS011;24099;47.102;15.440;2022-12-24T00:30:38;1.23;;;1.13;;
3667;SDS011;24099;47.102;15.440;2022-12-24T00:33:07;1.92;;;1.10;;
3667;SDS011;24099;47.102;15.440;2022-12-24T00:35:35;0.60;;;0.55;;
3667;SDS011;24099;47.102;15.440;2022-12-24T00:38:03;2.38;;;1.15;;
3667;SDS011;24099;47.102;15.440;2022-12-24T00:40:31;2.88;;;0.98;;
3667;SDS011;24099;47.102;15.440;2022-12-24T00:42:59;2.95;;;1.15;;
3667;SDS011;24099;47.102;15.440;2022-12-24T00:45:27;0.73;;;0.68;;
3667;SDS011;24099;47.102;15.440;2022-12-24T00:47:56;2.28;;;1.27;;
3667;SDS011;24099;47.102;15.440;2022-12-24T00:50:24;1.60;;;1.45;;
3667;SDS011;24099;47.102;15.440;2022-12-24T00:52:51;1.02;;;1.00;;
3667;SDS011;24099;47.102;15.440;2022-12-24T00:55:19;2.97;;;1.15;;
3667;SDS011;24099;47.102;15.440;2022-12-24T00:57:47;2.10;;;1.05;;
3667;SDS011;24099;47.102;15.440;2022-12-24T01:00:14;0.65;;;0.65;;
3667;SDS011;24099;47.102;15.440;2022-12-24T01:02:42;1.77;;;0.68;;
3667;SDS011;24099;47.102;15.440;2022-12-24T01:05:11;2.92;;;1.20;;
3667;SDS011;24099;47.102;15.440;2022-12-24T01:07:40;1.90;;;0.90;;
3667;SDS011;24099;47.102;15.440;2022-12-24T01:10:11;0.93;;;0.73;;
3667;SDS011;24099;47.102;15.440;2022-12-24T01:12:41;1.15;;;0.85;;
3667;SDS011;24099;47.102;15.440;2022-12-24T01:15:09;1.48;;;0.68;;
3667;SDS011;24099;47.102;15.440;2022-12-24T01:17:38;1.00;;;1.00;;
3667;SDS011;24099;47.102;15.440;2022-12-24T01:20:07;0.70;;;0.70;;
3667;SDS011;24099;47.102;15.440;2022-12-24T01:22:39;0.57;;;0.57;;
3667;SDS011;24099;47.102;15.440;2022-12-24T01:25:07;0.60;;;0.60;;
3667;SDS011;24099;47.102;15.440;2022-12-24T01:27:35;0.75;;;0.75;;
3667;SDS011;24099;47.102;15.440;2022-12-24T01:30:03;2.72;;;0.75;;
3667;SDS011;24099;47.102;15.440;2022-12-24T01:32:32;1.55;;;1.33;;
3667;SDS011;24099;47.102;15.440;2022-12-24T01:35:00;0.52;;;0.52;;
3667;SDS011;24099;47.102;15.440;2022-12-24T01:37:31;2.40;;;1.20;;
3667;SDS011;24099;47.102;15.440;2022-12-24T01:40:00;0.43;;;0.43;;
3667;SDS011;24099;47.102;15.440;2022-12-24T01:42:45;0.93;;;0.60;;
3667;SDS011;24099;47.102;15.440;2022-12-24T01:45:42;1.25;;;0.60;;
3667;SDS011;24099;47.102;15.440;2022-12-24T01:48:17;0.40;;;0.40;;
3667;SDS011;24099;47.102;15.440;2022-12-24T01:50:48;0.65;;;0.50;;
3667;SDS011;24099;47.102;15.440;2022-12-24T01:53:21;0.45;;;0.45;;
3667;SDS011;24099;47.102;15.440;2022-12-24T01:55:50;0.57;;;0.57;;
3667;SDS011;24099;47.102;15.440;2022-12-24T01:58:19;3.40;;;1.27;;
3667;SDS011;24099;47.102;15.440;2022-12-24T02:00:49;0.52;;;0.40;;
3667;SDS011;24099;47.102;15.440;2022-12-24T02:03:17;0.70;;;0.57;;
3667;SDS011;24099;47.102;15.440;2022-12-24T02:05:46;0.40;;;0.40;;
3667;SDS011;24099;47.102;15.440;2022-12-24T02:08:17;0.20;;;0.20;;
3667;SDS011;24099;47.102;15.440;2022-12-24T02:10:45;0.55;;;0.55;;
3667;SDS011;24099;47.102;15.440;2022-12-24T02:13:15;1.33;;;1.02;;
3667;SDS011;24099;47.102;15.440;2022-12-24T02:15:52;0.45;;;0.45;;
3667;SDS011;24099;47.102;15.440;2022-12-24T02:18:30;2.30;;;1.20;;
3667;SDS011;24099;47.102;15.440;2022-12-24T02:21:11;0.55;;;0.43;;
3667;SDS011;24099;47.102;15.440;2022-12-24T02:24:20;0.82;;;0.73;;
3667;SDS011;24099;47.102;15.440;2022-12-24T02:27:08;0.43;;;0.43;;
3667;SDS011;24099;47.102;15.440;2022-12-24T02:32:51;1.90;;;0.90;;
3667;SDS011;24099;47.102;15.440;2022-12-24T02:35:33;0.28;;;0.28;;
3667;SDS011;24099;47.102;15.440;2022-12-24T02:38:07;0.60;;;0.60;;
3667;SDS011;24099;47.102;15.440;2022-12-24T02:40:42;0.60;;;0.60;;
3667;SDS011;24099;47.102;15.440;2022-12-24T02:43:14;1.52;;;0.57;;
3667;SDS011;24099;47.102;15.440;2022-12-24T02:45:48;0.35;;;0.30;;
3667;SDS011;24099;47.102;15.440;2022-12-24T02:48:20;0.82;;;0.82;;
3667;SDS011;24099;47.102;15.440;2022-12-24T02:50:54;0.60;;;0.60;;
3667;SDS011;24099;47.102;15.440;2022-12-24T02:53:27;1.35;;;0.60;;
3667;SDS011;24099;47.102;15.440;2022-12-24T02:56:03;1.38;;;1.27;;
3667;SDS011;24099;47.102;15.440;2022-12-24T02:58:58;0.68;;;0.68;;
3667;SDS011;24099;47.102;15.440;2022-12-24T03:01:44;0.20;;;0.20;;
3667;SDS011;24099;47.102;15.440;2022-12-24T03:04:21;0.52;;;0.43;;
3667;SDS011;24099;47.102;15.440;2022-12-24T03:07:05;0.38;;;0.38;;
3667;SDS011;24099;47.102;15.440;2022-12-24T03:09:44;0.40;;;0.40;;
3667;SDS011;24099;47.102;15.440;2022-12-24T03:12:23;3.40;;;0.65;;
3667;SDS011;24099;47.102;15.440;2022-12-24T03:14:55;0.30;;;0.30;;
3667;SDS011;24099;47.102;15.440;2022-12-24T03:17:26;0.65;;;0.52;;
3667;SDS011;24099;47.102;15.440;2022-12-24T03:19:54;5.93;;;0.68;;
3667;SDS011;24099;47.102;15.440;2022-12-24T03:22:22;0.43;;;0.43;;
3667;SDS011;24099;47.102;15.440;2022-12-24T03:24:52;0.30;;;0.30;;
3667;SDS011;24099;47.102;15.440;2022-12-24T03:27:20;0.52;;;0.52;;
3667;SDS011;24099;47.102;15.440;2022-12-24T03:29:50;0.50;;;0.50;;
3667;SDS011;24099;47.102;15.440;2022-12-24T03:32:22;0.65;;;0.40;;
3667;SDS011;24099;47.102;15.440;2022-12-24T03:34:51;0.40;;;0.40;;
3667;SDS011;24099;47.102;15.440;2022-12-24T03:37:20;0.30;;;0.30;;
3667;SDS011;24099;47.102;15.440;2022-12-24T03:39:48;1.63;;;0.50;;
3667;SDS011;24099;47.102;15.440;2022-12-24T03:42:16;0.82;;;0.77;;
3667;SDS011;24099;47.102;15.440;2022-12-24T03:44:43;0.50;;;0.50;;
3667;SDS011;24099;47.102;15.440;2022-12-24T03:47:11;0.47;;;0.47;;
3667;SDS011;24099;47.102;15.440;2022-12-24T03:49:39;0.57;;;0.57;;
3667;SDS011;24099;47.102;15.440;2022-12-24T03:52:07;1.05;;;0.95;;
3667;SDS011;24099;47.102;15.440;2022-12-24T03:54:35;0.80;;;0.70;;
3667;SDS011;24099;47.102;15.440;2022-12-24T03:57:03;0.50;;;0.50;;
3667;SDS011;24099;47.102;15.440;2022-12-24T03:59:31;0.57;;;0.52;;
3667;SDS011;24099;47.102;15.440;2022-12-24T04:01:58;0.40;;;0.40;;
3667;SDS011;24099;47.102;15.440;2022-12-24T04:04:26;0.45;;;0.45;;
3667;SDS011;24099;47.102;15.440;2022-12-24T04:06:53;0.40;;;0.40;;
3667;SDS011;24099;47.102;15.440;2022-12-24T04:09:22;0.60;;;0.60;;
3667;SDS011;24099;47.102;15.440;2022-12-24T04:11:50;0.77;;;0.77;;
3667;SDS011;24099;47.102;15.440;2022-12-24T04:14:18;0.60;;;0.60;;
3667;SDS011;24099;47.102;15.440;2022-12-24T04:16:45;1.27;;;0.63;;
3667;SDS011;24099;47.102;15.440;2022-12-24T04:19:13;1.63;;;0.52;;
3667;SDS011;24099;47.102;15.440;2022-12-24T04:21:40;1.00;;;0.52;;
3667;SDS011;24099;47.102;15.440;2022-12-24T04:24:08;0.70;;;0.70;;
3667;SDS011;24099;47.102;15.440;2022-12-24T04:26:37;0.60;;;0.60;;
3667;SDS011;24099;47.102;15.440;2022-12-24T04:29:06;1.42;;;0.90;;
3667;SDS011;24099;47.102;15.440;2022-12-24T04:31:34;0.70;;;0.70;;
3667;SDS011;24099;47.102;15.440;2022-12-24T04:34:02;1.30;;;1.20;;
3667;SDS011;24099;47.102;15.440;2022-12-24T04:36:29;1.23;;;1.05;;
3667;SDS011;24099;47.102;15.440;2022-12-24T04:38:57;1.98;;;0.98;;
3667;SDS011;24099;47.102;15.440;2022-12-24T04:41:25;0.80;;;0.73;;
3667;SDS011;24099;47.102;15.440;2022-12-24T04:43:54;0.85;;;0.85;;
3667;SDS011;24099;47.102;15.440;2022-12-24T04:46:22;0.85;;;0.85;;
3667;SDS011;24099;47.102;15.440;2022-12-24T04:48:52;2.08;;;1.60;;
3667;SDS011;24099;47.102;15.440;2022-12-24T04:51:20;0.80;;;0.80;;
3667;SDS011;24099;47.102;15.440;2022-12-24T04:53:48;0.80;;;0.80;;
3667;SDS011;24099;47.102;15.440;2022-12-24T04:56:17;1.08;;;0.98;;
3667;SDS011;24099;47.102;15.440;2022-12-24T04:58:46;0.80;;;0.80;;
3667;SDS011;24099;47.102;15.440;2022-12-24T05:01:16;0.50;;;0.50;;
3667;SDS011;24099;47.102;15.440;2022-12-24T05:03:46;1.35;;;0.70;;
3667;SDS011;24099;47.102;15.440;2022-12-24T05:06:15;1.23;;;1.13;;
3667;SDS011;24099;47.102;15.440;2022-12-24T05:08:44;0.40;;;0.40;;
3667;SDS011;24099;47.102;15.440;2022-12-24T05:11:12;0.77;;;0.65;;
3667;SDS011;24099;47.102;15.440;2022-12-24T05:13:41;0.60;;;0.47;;
3667;SDS011;24099;47.102;15.440;2022-12-24T05:16:09;0.60;;;0.60;;
3667;SDS011;24099;47.102;15.440;2022-12-24T05:18:39;0.50;;;0.50;;
3667;SDS011;24099;47.102;15.440;2022-12-24T05:21:07;1.25;;;1.00;;
3667;SDS011;24099;47.102;15.440;2022-12-24T05:23:36;0.40;;;0.40;;
3667;SDS011;24099;47.102;15.440;2022-12-24T05:26:25;1.35;;;1.00;;
3667;SDS011;24099;47.102;15.440;2022-12-24T05:28:56;1.15;;;1.05;;
3667;SDS011;24099;47.102;15.440;2022-12-24T05:31:25;0.40;;;0.40;;
3667;SDS011;24099;47.102;15.440;2022-12-24T05:33:57;0.50;;;0.50;;
3667;SDS011;24099;47.102;15.440;2022-12-24T05:36:24;0.95;;;0.35;;
3667;SDS011;24099;47.102;15.440;2022-12-24T05:38:52;0.68;;;0.68;;
3667;SDS011;24099;47.102;15.440;2022-12-24T05:41:20;0.63;;;0.63;;
3667;SDS011;24099;47.102;15.440;2022-12-24T05:43:48;0.75;;;0.70;;
3667;SDS011;24099;47.102;15.440;2022-12-24T05:46:16;1.02;;;0.98;;
3667;SDS011;24099;47.102;15.440;2022-12-24T05:48:45;0.75;;;0.65;;
3667;SDS011;24099;47.102;15.440;2022-12-24T05:51:15;1.70;;;0.98;;
3667;SDS011;24099;47.102;15.440;2022-12-24T05:53:44;2.22;;;0.98;;
3667;SDS011;24099;47.102;15.440;2022-12-24T05:56:13;0.50;;;0.50;;
3667;SDS011;24099;47.102;15.440;2022-12-24T05:58:42;0.60;;;0.60;;
3667;SDS011;24099;47.102;15.440;2022-12-24T06:01:10;1.13;;;0.77;;
3667;SDS011;24099;47.102;15.440;2022-12-24T06:03:39;0.40;;;0.40;;
3667;SDS011;24099;47.102;15.440;2022-12-24T06:06:07;0.30;;;0.30;;
3667;SDS011;24099;47.102;15.440;2022-12-24T06:08:38;0.90;;;0.90;;
3667;SDS011;24099;47.102;15.440;2022-12-24T06:11:07;21.25;;;1.85;;
3667;SDS011;24099;47.102;15.440;2022-12-24T06:13:36;1.08;;;0.70;;
3667;SDS011;24099;47.102;15.440;2022-12-24T06:16:06;0.68;;;0.52;;
3667;SDS011;24099;47.102;15.440;2022-12-24T06:18:35;0.28;;;0.28;;
3667;SDS011;24099;47.102;15.440;2022-12-24T06:21:03;0.60;;;0.60;;
3667;SDS011;24099;47.102;15.440;2022-12-24T06:23:32;0.40;;;0.40;;
3667;SDS011;24099;47.102;15.440;2022-12-24T06:26:02;2.30;;;0.60;;
3667;SDS011;24099;47.102;15.440;2022-12-24T06:28:32;0.70;;;0.70;;
3667;SDS011;24099;47.102;15.440;2022-12-24T06:31:01;1.95;;;0.80;;
3667;SDS011;24099;47.102;15.440;2022-12-24T06:33:29;1.00;;;0.50;;
3667;SDS011;24099;47.102;15.440;2022-12-24T06:35:57;0.88;;;0.60;;
3667;SDS011;24099;47.102;15.440;2022-12-24T06:38:25;0.32;;;0.32;;
3667;SDS011;24099;47.102;15.440;2022-12-24T06:40:55;0.63;;;0.60;;
3667;SDS011;24099;47.102;15.440;2022-12-24T06:43:24;0.93;;;0.85;;
3667;SDS011;24099;47.102;15.440;2022-12-24T06:45:52;0.60;;;0.60;;
3667;SDS011;24099;47.102;15.440;2022-12-24T06:48:19;0.30;;;0.30;;
3667;SDS011;24099;47.102;15.440;2022-12-24T06:50:47;0.65;;;0.65;;
3667;SDS011;24099;47.102;15.440;2022-12-24T06:53:14;0.65;;;0.65;;
3667;SDS011;24099;47.102;15.440;2022-12-24T06:55:42;0.52;;;0.52;;
3667;SDS011;24099;47.102;15.440;2022-12-24T06:58:10;0.52;;;0.52;;
3667;SDS011;24099;47.102;15.440;2022-12-24T07:00:39;1.05;;;1.00;;
3667;SDS011;24099;47.102;15.440;2022-12-24T07:03:07;0.60;;;0.60;;
3667;SDS011;24099;47.102;15.440;2022-12-24T07:05:34;2.35;;;0.60;;
3667;SDS011;24099;47.102;15.440;2022-12-24T07:08:02;0.93;;;0.93;;
3667;SDS011;24099;47.102;15.440;2022-12-24T07:10:30;0.63;;;0.63;;
3667;SDS011;24099;47.102;15.440;2022-12-24T07:12:58;0.85;;;0.80;;
3667;SDS011;24099;47.102;15.440;2022-12-24T07:15:25;0.50;;;0.50;;
3667;SDS011;24099;47.102;15.440;2022-12-24T07:17:54;0.40;;;0.40;;
3667;SDS011;24099;47.102;15.440;2022-12-24T07:20:22;0.60;;;0.60;;
3667;SDS011;24099;47.102;15.440;2022-12-24T07:22:49;0.57;;;0.57;;
3667;SDS011;24099;47.102;15.440;2022-12-24T07:25:17;0.85;;;0.85;;
3667;SDS011;24099;47.102;15.440;2022-12-24T07:27:45;7.43;;;1.20;;
3667;SDS011;24099;47.102;15.440;2022-12-24T07:30:13;0.70;;;0.70;;
3667;SDS011;24099;47.102;15.440;2022-12-24T07:32:40;0.95;;;0.80;;
3667;SDS011;24099;47.102;15.440;2022-12-24T07:35:10;0.80;;;0.57;;
3667;SDS011;24099;47.102;15.440;2022-12-24T07:37:37;1.52;;;1.27;;
3667;SDS011;24099;47.102;15.440;2022-12-24T07:40:06;1.45;;;1.08;;
3667;SDS011;24099;47.102;15.440;2022-12-24T07:42:34;1.65;;;1.33;;
3667;SDS011;24099;47.102;15.440;2022-12-24T07:45:02;0.75;;;0.75;;
3667;SDS011;24099;47.102;15.440;2022-12-24T07:47:30;0.98;;;0.98;;
3667;SDS011;24099;47.102;15.440;2022-12-24T07:49:58;0.80;;;0.60;;
3667;SDS011;24099;47.102;15.440;2022-12-24T07:52:27;1.15;;;1.05;;
3667;SDS011;24099;47.102;15.440;2022-12-24T07:54:54;0.75;;;0.75;;
3667;SDS011;24099;47.102;15.440;2022-12-24T07:57:22;0.60;;;0.60;;
3667;SDS011;24099;47.102;15.440;2022-12-24T07:59:50;0.68;;;0.68;;
3667;SDS011;24099;47.102;15.440;2022-12-24T08:02:17;1.33;;;0.73;;
3667;SDS011;24099;47.102;15.440;2022-12-24T08:04:45;0.60;;;0.60;;
3667;SDS011;24099;47.102;15.440;2022-12-24T08:07:12;0.98;;;0.85;;
3667;SDS011;24099;47.102;15.440;2022-12-24T08:09:41;0.50;;;0.50;;
3667;SDS011;24099;47.102;15.440;2022-12-24T08:12:10;0.55;;;0.55;;
3667;SDS011;24099;47.102;15.440;2022-12-24T08:14:38;0.73;;;0.73;;
3667;SDS011;24099;47.102;15.440;2022-12-24T08:17:05;0.73;;;0.70;;
3667;SDS011;24099;47.102;15.440;2022-12-24T08:19:33;0.30;;;0.30;;
3667;SDS011;24099;47.102;15.440;2022-12-24T08:22:01;0.50;;;0.50;;
3667;SDS011;24099;47.102;15.440;2022-12-24T08:24:28;0.70;;;0.70;;
3667;SDS011;24099;47.102;15.440;2022-12-24T08:26:58;0.60;;;0.60;;
3667;SDS011;24099;47.102;15.440;2022-12-24T08:29:26;1.17;;;0.73;;
3667;SDS011;24099;47.102;15.440;2022-12-24T08:31:53;0.40;;;0.40;;
3667;SDS011;24099;47.102;15.440;2022-12-24T08:34:21;0.52;;;0.52;;
3667;SDS011;24099;47.102;15.440;2022-12-24T08:36:49;0.55;;;0.55;;
3667;SDS011;24099;47.102;15.440;2022-12-24T08:39:16;0.32;;;0.32;;
3667;SDS011;24099;47.102;15.440;2022-12-24T08:41:44;0.70;;;0.70;;
3667;SDS011;24099;47.102;15.440;2022-12-24T08:44:13;9.27;;;0.90;;
3667;SDS011;24099;47.102;15.440;2022-12-24T08:46:41;0.90;;;0.70;;
3667;SDS011;24099;47.102;15.440;2022-12-24T08:49:08;0.80;;;0.70;;
3667;SDS011;24099;47.102;15.440;2022-12-24T08:51:36;0.75;;;0.75;;
3667;SDS011;24099;47.102;15.440;2022-12-24T08:54:04;2.55;;;1.88;;
3667;SDS011;24099;47.102;15.440;2022-12-24T08:56:31;1.17;;;0.95;;
3667;SDS011;24099;47.102;15.440;2022-12-24T08:58:59;1.45;;;1.40;;
3667;SDS011;24099;47.102;15.440;2022-12-24T09:01:28;2.72;;;1.45;;
3667;SDS011;24099;47.102;15.440;2022-12-24T09:03:56;1.90;;;1.38;;
3667;SDS011;24099;47.102;15.440;2022-12-24T09:06:24;1.27;;;1.17;;
3667;SDS011;24099;47.102;15.440;2022-12-24T09:08:51;4.05;;;2.15;;
3667;SDS011;24099;47.102;15.440;2022-12-24T09:11:19;7.47;;;2.33;;
3667;SDS011;24099;47.102;15.440;2022-12-24T09:13:46;2.88;;;2.33;;
3667;SDS011;24099;47.102;15.440;2022-12-24T09:16:14;5.80;;;2.35;;
3667;SDS011;24099;47.102;15.440;2022-12-24T09:18:43;3.67;;;1.90;;
3667;SDS011;24099;47.102;15.440;2022-12-24T09:21:11;4.10;;;1.92;;
3667;SDS011;24099;47.102;15.440;2022-12-24T09:23:42;8.68;;;3.13;;
3667;SDS011;24099;47.102;15.440;2022-12-24T09:26:12;5.43;;;1.98;;
3667;SDS011;24099;47.102;15.440;2022-12-24T09:28:41;10.55;;;3.13;;
3667;SDS011;24099;47.102;15.440;2022-12-24T09:31:09;5.57;;;3.80;;
3667;SDS011;24099;47.102;15.440;2022-12-24T09:33:38;5.43;;;3.30;;
3667;SDS011;24099;47.102;15.440;2022-12-24T09:36:09;2.72;;;1.98;;
3667;SDS011;24099;47.102;15.440;2022-12-24T09:38:37;3.83;;;2.45;;
3667;SDS011;24099;47.102;15.440;2022-12-24T09:41:10;6.95;;;3.20;;
3667;SDS011;24099;47.102;15.440;2022-12-24T09:43:38;4.85;;;3.38;;
3667;SDS011;24099;47.102;15.440;2022-12-24T09:46:12;6.97;;;3.83;;
3667;SDS011;24099;47.102;15.440;2022-12-24T09:48:46;4.38;;;3.28;;
3667;SDS011;24099;47.102;15.440;2022-12-24T09:51:22;4.95;;;3.45;;
3667;SDS011;24099;47.102;15.440;2022-12-24T09:53:54;4.30;;;2.88;;
3667;SDS011;24099;47.102;15.440;2022-12-24T09:56:27;6.05;;;2.90;;
3667;SDS011;24099;47.102;15.440;2022-12-24T09:58:59;5.43;;;2.30;;
3667;SDS011;24099;47.102;15.440;2022-12-24T10:01:29;5.65;;;1.83;;
3667;SDS011;24099;47.102;15.440;2022-12-24T10:03:59;5.70;;;2.35;;
3667;SDS011;24099;47.102;15.440;2022-12-24T10:06:35;7.85;;;2.60;;
3667;SDS011;24099;47.102;15.440;2022-12-24T10:09:11;7.95;;;3.55;;
3667;SDS011;24099;47.102;15.440;2022-12-24T10:11:51;7.18;;;3.33;;
3667;SDS011;24099;47.102;15.440;2022-12-24T10:14:30;4.63;;;2.83;;
3667;SDS011;24099;47.102;15.440;2022-12-24T10:17:17;3.38;;;1.90;;
3667;SDS011;24099;47.102;15.440;2022-12-24T10:19:58;5.90;;;2.75;;
3667;SDS011;24099;47.102;15.440;2022-12-24T10:22:39;8.85;;;2.40;;
3667;SDS011;24099;47.102;15.440;2022-12-24T10:25:19;4.18;;;2.35;;
3667;SDS011;24099;47.102;15.440;2022-12-24T10:27:51;6.47;;;3.60;;
3667;SDS011;24099;47.102;15.440;2022-12-24T10:30:23;5.90;;;3.50;;
3667;SDS011;24099;47.102;15.440;2022-12-24T10:32:53;7.90;;;2.92;;
3667;SDS011;24099;47.102;15.440;2022-12-24T10:35:22;4.45;;;2.80;;
3667;SDS011;24099;47.102;15.440;2022-12-24T10:37:53;7.35;;;2.88;;
3667;SDS011;24099;47.102;15.440;2022-12-24T10:40:25;5.45;;;2.13;;
3667;SDS011;24099;47.102;15.440;2022-12-24T10:42:57;3.53;;;2.22;;
3667;SDS011;24099;47.102;15.440;2022-12-24T10:45:25;3.08;;;2.13;;
3667;SDS011;24099;47.102;15.440;2022-12-24T10:48:02;2.33;;;1.92;;
3667;SDS011;24099;47.102;15.440;2022-12-24T10:50:35;2.90;;;1.83;;
3667;SDS011;24099;47.102;15.440;2022-12-24T10:53:11;2.58;;;1.42;;
3667;SDS011;24099;47.102;15.440;2022-12-24T10:55:42;2.92;;;2.05;;
3667;SDS011;24099;47.102;15.440;2022-12-24T10:58:14;3.05;;;2.33;;
3667;SDS011;24099;47.102;15.440;2022-12-24T11:00:48;5.15;;;2.80;;
3667;SDS011;24099;47.102;15.440;2022-12-24T11:03:20;5.05;;;2.63;;
3667;SDS011;24099;47.102;15.440;2022-12-24T11:06:04;3.47;;;2.17;;
3667;SDS011;24099;47.102;15.440;2022-12-24T11:08:40;3.53;;;2.72;;
3667;SDS011;24099;47.102;15.440;2022-12-24T11:11:10;3.47;;;1.98;;
3667;SDS011;24099;47.102;15.440;2022-12-24T11:13:39;4.13;;;1.92;;
3667;SDS011;24099;47.102;15.440;2022-12-24T11:16:14;2.83;;;1.30;;
3667;SDS011;24099;47.102;15.440;2022-12-24T11:18:46;4.43;;;2.63;;
3667;SDS011;24099;47.102;15.440;2022-12-24T11:21:20;5.28;;;2.53;;
3667;SDS011;24099;47.102;15.440;2022-12-24T11:23:52;5.32;;;2.33;;
3667;SDS011;24099;47.102;15.440;2022-12-24T11:26:23;6.47;;;2.72;;
3667;SDS011;24099;47.102;15.440;2022-12-24T11:29:05;4.63;;;2.92;;
3667;SDS011;24099;47.102;15.440;2022-12-24T11:31:39;5.68;;;2.40;;
3667;SDS011;24099;47.102;15.440;2022-12-24T11:34:20;5.57;;;2.00;;
3667;SDS011;24099;47.102;15.440;2022-12-24T11:36:50;3.88;;;2.17;;
3667;SDS011;24099;47.102;15.440;2022-12-24T11:39:22;3.08;;;1.85;;
3667;SDS011;24099;47.102;15.440;2022-12-24T11:41:52;2.95;;;1.75;;
3667;SDS011;24099;47.102;15.440;2022-12-24T11:44:22;2.28;;;2.10;;
3667;SDS011;24099;47.102;15.440;2022-12-24T11:46:51;3.58;;;2.72;;
3667;SDS011;24099;47.102;15.440;2022-12-24T11:49:22;4.05;;;2.83;;
3667;SDS011;24099;47.102;15.440;2022-12-24T11:51:57;5.18;;;2.40;;
3667;SDS011;24099;47.102;15.440;2022-12-24T11:55:04;8.32;;;3.35;;
3667;SDS011;24099;47.102;15.440;2022-12-24T11:57:43;4.20;;;2.45;;
3667;SDS011;24099;47.102;15.440;2022-12-24T12:00:18;6.50;;;3.15;;
3667;SDS011;24099;47.102;15.440;2022-12-24T12:02:46;2.13;;;1.98;;
3667;SDS011;24099;47.102;15.440;2022-12-24T12:05:17;4.60;;;2.40;;
3667;SDS011;24099;47.102;15.440;2022-12-24T12:07:49;4.70;;;2.85;;
3667;SDS011;24099;47.102;15.440;2022-12-24T12:10:23;9.32;;;2.92;;
3667;SDS011;24099;47.102;15.440;2022-12-24T12:12:56;4.65;;;2.70;;
3667;SDS011;24099;47.102;15.440;2022-12-24T12:15:26;4.57;;;2.97;;
3667;SDS011;24099;47.102;15.440;2022-12-24T12:18:01;3.67;;;1.90;;
3667;SDS011;24099;47.102;15.440;2022-12-24T12:20:33;4.32;;;2.55;;
3667;SDS011;24099;47.102;15.440;2022-12-24T12:23:06;6.95;;;3.28;;
3667;SDS011;24099;47.102;15.440;2022-12-24T12:25:44;9.43;;;2.33;;
3667;SDS011;24099;47.102;15.440;2022-12-24T12:28:17;4.95;;;2.40;;
3667;SDS011;24099;47.102;15.440;2022-12-24T12:30:52;2.85;;;2.15;;
3667;SDS011;24099;47.102;15.440;2022-12-24T12:33:27;6.82;;;2.33;;
3667;SDS011;24099;47.102;15.440;2022-12-24T12:36:00;6.65;;;2.75;;
3667;SDS011;24099;47.102;15.440;2022-12-24T12:38:30;2.53;;;2.15;;
3667;SDS011;24099;47.102;15.440;2022-12-24T12:41:07;4.10;;;2.53;;
3667;SDS011;24099;47.102;15.440;2022-12-24T12:43:58;4.38;;;1.85;;
3667;SDS011;24099;47.102;15.440;2022-12-24T12:46:49;3.88;;;1.50;;
3667;SDS011;24099;47.102;15.440;2022-12-24T12:49:27;2.72;;;2.00;;
3667;SDS011;24099;47.102;15.440;2022-12-24T12:52:01;3.53;;;1.90;;
3667;SDS011;24099;47.102;15.440;2022-12-24T12:54:36;2.60;;;2.17;;
3667;SDS011;24099;47.102;15.440;2022-12-24T12:57:18;2.92;;;1.92;;
3667;SDS011;24099;47.102;15.440;2022-12-24T12:59:53;2.58;;;1.77;;
3667;SDS011;24099;47.102;15.440;2022-12-24T13:02:32;3.45;;;1.67;;
3667;SDS011;24099;47.102;15.440;2022-12-24T13:05:19;4.75;;;1.70;;
3667;SDS011;24099;47.102;15.440;2022-12-24T13:08:06;3.75;;;1.92;;
3667;SDS011;24099;47.102;15.440;2022-12-24T13:11:00;2.72;;;2.00;;
3667;SDS011;24099;47.102;15.440;2022-12-24T13:13:56;5.43;;;1.30;;
3667;SDS011;24099;47.102;15.440;2022-12-24T13:16:41;5.63;;;1.73;;
3667;SDS011;24099;47.102;15.440;2022-12-24T13:19:37;6.72;;;1.50;;
3667;SDS011;24099;47.102;15.440;2022-12-24T13:22:17;1.55;;;1.42;;
3667;SDS011;24099;47.102;15.440;2022-12-24T13:24:48;3.25;;;2.05;;
3667;SDS011;24099;47.102;15.440;2022-12-24T13:27:18;5.05;;;2.35;;
3667;SDS011;24099;47.102;15.440;2022-12-24T13:29:52;4.82;;;2.13;;
3667;SDS011;24099;47.102;15.440;2022-12-24T13:35:25;2.28;;;1.30;;
3667;SDS011;24099;47.102;15.440;2022-12-24T13:38:05;3.25;;;1.42;;
3667;SDS011;24099;47.102;15.440;2022-12-24T13:44:21;1.92;;;1.60;;
3667;SDS011;24099;47.102;15.440;2022-12-24T13:46:59;1.90;;;1.48;;
3667;SDS011;24099;47.102;15.440;2022-12-24T13:49:32;2.30;;;1.55;;
3667;SDS011;24099;47.102;15.440;2022-12-24T13:52:06;6.47;;;2.80;;
3667;SDS011;24099;47.102;15.440;2022-12-24T13:54:59;3.97;;;2.33;;
3667;SDS011;24099;47.102;15.440;2022-12-24T13:57:32;7.63;;;3.15;;
3667;SDS011;24099;47.102;15.440;2022-12-24T14:00:04;3.03;;;2.42;;
3667;SDS011;24099;47.102;15.440;2022-12-24T14:02:50;4.15;;;2.47;;
3667;SDS011;24099;47.102;15.440;2022-12-24T14:05:23;2.47;;;1.90;;
3667;SDS011;24099;47.102;15.440;2022-12-24T14:07:54;2.95;;;2.47;;
3667;SDS011;24099;47.102;15.440;2022-12-24T14:10:24;7.30;;;2.95;;
3667;SDS011;24099;47.102;15.440;2022-12-24T14:12:55;4.80;;;2.20;;
3667;SDS011;24099;47.102;15.440;2022-12-24T14:18:36;5.50;;;2.20;;
3667;SDS011;24099;47.102;15.440;2022-12-24T14:21:11;3.67;;;2.33;;
3667;SDS011;24099;47.102;15.440;2022-12-24T14:23:43;3.45;;;2.20;;
3667;SDS011;24099;47.102;15.440;2022-12-24T14:26:20;7.82;;;2.90;;
3667;SDS011;24099;47.102;15.440;2022-12-24T14:28:51;4.80;;;2.35;;
3667;SDS011;24099;47.102;15.440;2022-12-24T14:31:21;3.50;;;2.05;;
3667;SDS011;24099;47.102;15.440;2022-12-24T14:33:50;2.90;;;1.90;;
3667;SDS011;24099;47.102;15.440;2022-12-24T14:36:30;3.05;;;1.77;;
3667;SDS011;24099;47.102;15.440;2022-12-24T14:38:58;1.63;;;1.35;;
3667;SDS011;24099;47.102;15.440;2022-12-24T14:41:33;2.55;;;1.13;;
3667;SDS011;24099;47.102;15.440;2022-12-24T14:44:09;2.42;;;1.70;;
3667;SDS011;24099;47.102;15.440;2022-12-24T14:46:47;3.92;;;1.50;;
3667;SDS011;24099;47.102;15.440;2022-12-24T14:49:24;1.63;;;1.23;;
3667;SDS011;24099;47.102;15.440;2022-12-24T14:52:02;11.65;;;1.50;;
3667;SDS011;24099;47.102;15.440;2022-12-24T14:54:39;2.20;;;1.17;;
3667;SDS011;24099;47.102;15.440;2022-12-24T14:57:17;0.80;;;0.80;;
3667;SDS011;24099;47.102;15.440;2022-12-24T14:59:48;1.30;;;1.20;;
3667;SDS011;24099;47.102;15.440;2022-12-24T15:02:22;1.50;;;1.40;;
3667;SDS011;24099;47.102;15.440;2022-12-24T15:05:13;1.08;;;0.90;;
3667;SDS011;24099;47.102;15.440;2022-12-24T15:07:44;0.98;;;0.98;;
3667;SDS011;24099;47.102;15.440;2022-12-24T15:10:27;1.77;;;1.15;;
3667;SDS011;24099;47.102;15.440;2022-12-24T15:13:02;0.95;;;0.88;;
3667;SDS011;24099;47.102;15.440;2022-12-24T15:15:31;2.88;;;1.42;;
3667;SDS011;24099;47.102;15.440;2022-12-24T15:18:01;2.38;;;1.17;;
3667;SDS011;24099;47.102;15.440;2022-12-24T15:20:31;1.85;;;1.30;;
3667;SDS011;24099;47.102;15.440;2022-12-24T15:22:59;3.63;;;1.13;;
3667;SDS011;24099;47.102;15.440;2022-12-24T15:25:27;1.35;;;1.23;;
3667;SDS011;24099;47.102;15.440;2022-12-24T15:27:56;1.05;;;1.05;;